Time;durP1;ratioP1;P1;durP2;ratioP2;P2;SDS_P1;SDS_P2;PMS_P1;PMS_P2;Temp;Humidity;BMP_temperature;BMP_pressure;BME280_temperature;BME280_humidity;BME280_pressure;Samples;Min_cycle;Max_cycle;Signal;HPM_P1;HPM_P2
2023/03/22 00:00:42;;;;;;;19.48;11.30;;;;;;;;;;5023197;28;20413;-53
2023/03/22 00:03:09;;;;;;;23.17;12.93;;;;;;;;;;5023023;28;20029;-54
2023/03/22 00:05:34;;;;;;;19.75;11.63;;;;;;;;;;5023196;28;20073;-54
2023/03/22 00:08:00;;;;;;;24.02;12.70;;;;;;;;;;5023197;28;20560;-51
2023/03/22 00:10:27;;;;;;;27.42;13.70;;;;;;;;;;5023003;28;20026;-51
2023/03/22 00:12:53;;;;;;;23.25;12.30;;;;;;;;;;5023606;28;20497;-52
2023/03/22 00:15:18;;;;;;;27.10;13.15;;;;;;;;;;5022694;28;20306;-53
2023/03/22 00:17:44;;;;;;;23.08;13.13;;;;;;;;;;5023321;28;20030;-49
2023/03/22 00:20:10;;;;;;;21.63;13.13;;;;;;;;;;5022749;28;20301;-53
2023/03/22 00:22:35;;;;;;;30.25;13.27;;;;;;;;;;5022781;28;20060;-50
2023/03/22 00:25:01;;;;;;;24.55;13.65;;;;;;;;;;5022569;28;20057;-51
2023/03/22 00:27:26;;;;;;;24.67;12.30;;;;;;;;;;5022856;28;20100;-50
2023/03/22 00:29:51;;;;;;;24.20;12.95;;;;;;;;;;5022635;28;20025;-53
2023/03/22 00:32:17;;;;;;;26.23;13.80;;;;;;;;;;5022626;28;20045;-51
2023/03/22 00:34:42;;;;;;;22.77;12.52;;;;;;;;;;5021563;28;20502;-52
2023/03/22 00:37:07;;;;;;;22.27;12.85;;;;;;;;;;5022550;28;20034;-48
2023/03/22 00:39:33;;;;;;;22.02;12.88;;;;;;;;;;5022631;28;20017;-51
2023/03/22 00:41:58;;;;;;;23.10;13.13;;;;;;;;;;5022829;28;20033;-52
2023/03/22 00:44:23;;;;;;;24.73;13.60;;;;;;;;;;5021088;28;20544;-52
2023/03/22 00:46:48;;;;;;;23.98;13.20;;;;;;;;;;5022298;28;20053;-53
2023/03/22 00:49:14;;;;;;;23.75;13.25;;;;;;;;;;5022515;28;20446;-51
2023/03/22 00:51:39;;;;;;;24.65;12.88;;;;;;;;;;5022093;28;20017;-54
2023/03/22 00:54:04;;;;;;;23.40;13.18;;;;;;;;;;5022549;28;20034;-53
2023/03/22 00:56:32;;;;;;;24.17;12.43;;;;;;;;;;5021927;28;20449;-52
2023/03/22 00:58:58;;;;;;;26.52;13.43;;;;;;;;;;5022140;28;20086;-53
2023/03/22 01:01:23;;;;;;;25.95;12.65;;;;;;;;;;5022302;28;20033;-53
2023/03/22 01:03:51;;;;;;;25.65;12.98;;;;;;;;;;5022124;28;20031;-50
2023/03/22 01:06:17;;;;;;;21.77;13.02;;;;;;;;;;5022331;28;20022;-54
2023/03/22 01:08:42;;;;;;;22.85;12.75;;;;;;;;;;5022016;28;20448;-53
2023/03/22 01:11:08;;;;;;;21.90;12.88;;;;;;;;;;5021784;28;20037;-52
2023/03/22 01:13:36;;;;;;;26.27;12.85;;;;;;;;;;5021684;28;20525;-53
2023/03/22 01:16:01;;;;;;;23.42;12.48;;;;;;;;;;5022223;28;20094;-54
2023/03/22 01:18:27;;;;;;;27.45;14.00;;;;;;;;;;5022183;28;20467;-53
2023/03/22 01:20:52;;;;;;;23.33;12.35;;;;;;;;;;5021615;28;20068;-51
2023/03/22 01:23:17;;;;;;;19.98;11.82;;;;;;;;;;5021724;28;20028;-51
2023/03/22 01:25:43;;;;;;;24.98;13.02;;;;;;;;;;5022133;28;20025;-54
2023/03/22 01:28:08;;;;;;;23.90;12.25;;;;;;;;;;5022265;28;20764;-53
2023/03/22 01:30:34;;;;;;;19.33;11.20;;;;;;;;;;5022001;28;20080;-54
2023/03/22 01:32:59;;;;;;;23.38;11.70;;;;;;;;;;5021858;28;20027;-55
2023/03/22 01:35:24;;;;;;;21.67;11.63;;;;;;;;;;5021586;28;20382;-51
2023/03/22 01:37:50;;;;;;;21.42;11.93;;;;;;;;;;5021859;28;20021;-49
2023/03/22 01:40:15;;;;;;;22.00;12.48;;;;;;;;;;5021529;28;20593;-53
2023/03/22 01:42:41;;;;;;;22.92;12.32;;;;;;;;;;5021287;28;20470;-50
2023/03/22 01:45:12;;;;;;;22.90;11.55;;;;;;;;;;5021196;28;20412;-53
2023/03/22 01:47:37;;;;;;;23.90;12.13;;;;;;;;;;5021159;28;20049;-52
2023/03/22 01:50:03;;;;;;;19.90;11.38;;;;;;;;;;5021499;28;20107;-54
2023/03/22 01:52:29;;;;;;;22.23;11.60;;;;;;;;;;5021021;28;20030;-51
2023/03/22 01:54:54;;;;;;;22.05;11.40;;;;;;;;;;5020998;28;20138;-54
2023/03/22 01:57:20;;;;;;;21.63;11.85;;;;;;;;;;5020922;28;20033;-52
2023/03/22 01:59:46;;;;;;;22.27;11.93;;;;;;;;;;5021055;28;20096;-52
2023/03/22 02:02:17;;;;;;;25.35;12.77;;;;;;;;;;5021304;28;20022;-53
2023/03/22 02:04:43;;;;;;;21.77;11.82;;;;;;;;;;5021140;28;20083;-48
2023/03/22 02:07:14;;;;;;;23.88;11.40;;;;;;;;;;5020943;28;20029;-50
2023/03/22 02:09:41;;;;;;;21.42;11.85;;;;;;;;;;5021197;28;20021;-51
2023/03/22 02:12:06;;;;;;;24.52;12.32;;;;;;;;;;5020724;28;20021;-49
2023/03/22 02:14:31;;;;;;;22.00;11.30;;;;;;;;;;5020730;28;20036;-52
2023/03/22 02:17:15;;;;;;;24.70;12.50;;;;;;;;;;5020833;28;20026;-50
2023/03/22 02:19:56;;;;;;;26.80;11.32;;;;;;;;;;5020742;28;20087;-53
2023/03/22 02:22:39;;;;;;;24.17;11.73;;;;;;;;;;5020508;28;20036;-53
2023/03/22 02:25:23;;;;;;;21.58;11.10;;;;;;;;;;5020614;28;20079;-54
2023/03/22 02:27:48;;;;;;;25.08;11.30;;;;;;;;;;5020961;28;20415;-54
2023/03/22 02:30:32;;;;;;;24.67;11.45;;;;;;;;;;5020766;28;20022;-52
2023/03/22 02:33:00;;;;;;;23.00;11.15;;;;;;;;;;5020312;28;20025;-54
2023/03/22 02:35:25;;;;;;;25.05;12.07;;;;;;;;;;5020993;28;20061;-52
2023/03/22 02:38:03;;;;;;;24.98;12.82;;;;;;;;;;5020645;28;20136;-54
2023/03/22 02:40:51;;;;;;;22.88;12.38;;;;;;;;;;5020804;28;20352;-52
2023/03/22 02:43:20;;;;;;;27.52;12.55;;;;;;;;;;4998067;28;20065;-52
2023/03/22 02:45:54;;;;;;;22.88;11.95;;;;;;;;;;4998002;28;20196;-52
2023/03/22 02:48:27;;;;;;;22.88;11.07;;;;;;;;;;4981556;28;20065;-53
2023/03/22 02:50:52;;;;;;;24.70;12.15;;;;;;;;;;4998235;28;20149;-50
2023/03/22 02:53:20;;;;;;;20.95;11.75;;;;;;;;;;4998039;28;20473;-51
2023/03/22 02:55:51;;;;;;;21.15;11.15;;;;;;;;;;4998067;28;20105;-51
2023/03/22 02:58:16;;;;;;;23.40;11.18;;;;;;;;;;5001755;28;20030;-54
2023/03/22 03:00:42;;;;;;;27.92;11.77;;;;;;;;;;5001529;28;20115;-52
2023/03/22 03:03:10;;;;;;;22.75;12.02;;;;;;;;;;5001775;28;20033;-49
2023/03/22 03:05:38;;;;;;;28.02;12.82;;;;;;;;;;5001621;28;20057;-49
2023/03/22 03:08:04;;;;;;;23.95;11.95;;;;;;;;;;5001679;28;20034;-52
2023/03/22 03:10:30;;;;;;;24.85;11.35;;;;;;;;;;5001446;28;20434;-50
2023/03/22 03:12:56;;;;;;;25.33;11.35;;;;;;;;;;5001336;28;20010;-50
2023/03/22 03:15:22;;;;;;;24.23;12.02;;;;;;;;;;5001567;28;20180;-52
2023/03/22 03:18:06;;;;;;;22.35;10.68;;;;;;;;;;4985064;28;20407;-53
2023/03/22 03:20:45;;;;;;;20.90;10.73;;;;;;;;;;5014419;28;20120;-50
2023/03/22 03:23:17;;;;;;;23.00;12.13;;;;;;;;;;5023683;28;20112;-53
2023/03/22 03:25:58;;;;;;;22.65;11.73;;;;;;;;;;5022292;28;20029;-52
2023/03/22 03:28:38;;;;;;;24.02;11.25;;;;;;;;;;5023678;28;20022;-51
2023/03/22 03:31:12;;;;;;;25.52;11.60;;;;;;;;;;5037472;28;20049;-51
2023/03/22 03:33:40;;;;;;;22.13;11.60;;;;;;;;;;5023666;28;20313;-53
2023/03/22 03:36:11;;;;;;;25.08;12.55;;;;;;;;;;5024038;28;20430;-51
2023/03/22 03:38:41;;;;;;;20.55;11.02;;;;;;;;;;5023450;28;20025;-55
2023/03/22 03:41:12;;;;;;;19.35;10.98;;;;;;;;;;5023465;28;20020;-51
2023/03/22 03:43:38;;;;;;;23.98;11.43;;;;;;;;;;5023447;28;20122;-54
2023/03/22 03:46:03;;;;;;;21.45;11.93;;;;;;;;;;5023267;28;20084;-52
2023/03/22 03:48:31;;;;;;;20.30;11.15;;;;;;;;;;5023692;28;20052;-50
2023/03/22 03:50:57;;;;;;;22.88;11.02;;;;;;;;;;5023328;28;20024;-50
2023/03/22 03:53:22;;;;;;;22.30;12.23;;;;;;;;;;5023333;28;20025;-52
2023/03/22 03:55:47;;;;;;;24.38;11.43;;;;;;;;;;5021836;28;20386;-52
2023/03/22 03:58:14;;;;;;;21.42;11.82;;;;;;;;;;5023117;28;20393;-53
2023/03/22 04:00:40;;;;;;;24.35;11.30;;;;;;;;;;5023354;28;20021;-48
2023/03/22 04:03:05;;;;;;;24.58;12.57;;;;;;;;;;5022887;28;20399;-49
2023/03/22 04:05:31;;;;;;;25.35;12.52;;;;;;;;;;5023152;28;20037;-52
2023/03/22 04:07:56;;;;;;;22.00;11.27;;;;;;;;;;5022873;28;20446;-50
2023/03/22 04:10:22;;;;;;;24.65;12.20;;;;;;;;;;5023214;28;20025;-49
2023/03/22 04:12:47;;;;;;;26.77;12.57;;;;;;;;;;5022733;28;20017;-50
2023/03/22 04:15:12;;;;;;;23.95;12.60;;;;;;;;;;5022886;28;20025;-52
2023/03/22 04:17:38;;;;;;;24.00;12.15;;;;;;;;;;5022808;28;20037;-52
2023/03/22 04:20:05;;;;;;;23.52;11.65;;;;;;;;;;5022785;28;20025;-48
2023/03/22 04:22:33;;;;;;;23.27;12.18;;;;;;;;;;5021639;28;20509;-52
2023/03/22 04:24:58;;;;;;;21.08;10.75;;;;;;;;;;5022595;28;20022;-50
2023/03/22 04:27:24;;;;;;;26.48;12.63;;;;;;;;;;5022661;28;20544;-52
2023/03/22 04:29:49;;;;;;;26.02;12.85;;;;;;;;;;5022472;28;20079;-49
2023/03/22 04:32:15;;;;;;;28.30;11.77;;;;;;;;;;5021281;28;20153;-51
2023/03/22 04:34:41;;;;;;;37.53;14.20;;;;;;;;;;5022594;28;20021;-47
2023/03/22 04:37:06;;;;;;;32.45;11.38;;;;;;;;;;5022636;28;20026;-51
2023/03/22 04:39:32;;;;;;;29.00;13.10;;;;;;;;;;5022774;28;20433;-53
2023/03/22 04:41:57;;;;;;;28.90;12.00;;;;;;;;;;5022430;28;20127;-50
2023/03/22 04:44:22;;;;;;;28.15;12.27;;;;;;;;;;5022625;28;20521;-50
2023/03/22 04:46:48;;;;;;;43.83;15.68;;;;;;;;;;5022332;28;20109;-49
2023/03/22 04:49:13;;;;;;;155.80;45.65;;;;;;;;;;5022486;28;20052;-51
2023/03/22 04:51:38;;;;;;;153.32;48.45;;;;;;;;;;5022127;28;20021;-51
2023/03/22 04:54:04;;;;;;;110.07;41.10;;;;;;;;;;5022704;28;20056;-51
2023/03/22 04:56:29;;;;;;;85.70;29.85;;;;;;;;;;5021834;28;20353;-48
2023/03/22 04:58:54;;;;;;;66.57;23.30;;;;;;;;;;5022013;28;20021;-52
2023/03/22 05:01:20;;;;;;;40.88;17.90;;;;;;;;;;5021757;28;20029;-48
2023/03/22 05:03:46;;;;;;;27.35;13.27;;;;;;;;;;5022041;28;20320;-49
2023/03/22 05:06:12;;;;;;;30.85;13.65;;;;;;;;;;5022111;28;20025;-48
2023/03/22 05:08:37;;;;;;;29.63;12.55;;;;;;;;;;5021706;28;20023;-51
2023/03/22 05:11:07;;;;;;;26.63;13.20;;;;;;;;;;5021737;28;20021;-52
2023/03/22 05:13:32;;;;;;;26.27;13.68;;;;;;;;;;5021648;28;20105;-51
2023/03/22 05:15:58;;;;;;;36.13;15.63;;;;;;;;;;5022275;28;20526;-49
2023/03/22 05:18:25;;;;;;;32.95;14.25;;;;;;;;;;5021608;28;20036;-53
2023/03/22 05:20:52;;;;;;;27.52;13.55;;;;;;;;;;5020806;28;20017;-50
2023/03/22 05:23:19;;;;;;;34.70;14.60;;;;;;;;;;5021642;28;20396;-48
2023/03/22 05:25:45;;;;;;;25.95;13.10;;;;;;;;;;5021696;28;20372;-49
2023/03/22 05:28:13;;;;;;;26.77;13.32;;;;;;;;;;5021715;28;20361;-51
2023/03/22 05:30:38;;;;;;;28.70;13.55;;;;;;;;;;5021087;28;20049;-51
2023/03/22 05:33:04;;;;;;;22.42;12.38;;;;;;;;;;5021558;28;20086;-52
2023/03/22 05:35:29;;;;;;;30.85;15.52;;;;;;;;;;5021392;28;20025;-50
2023/03/22 05:37:55;;;;;;;31.35;14.50;;;;;;;;;;5021358;28;20439;-48
2023/03/22 05:40:21;;;;;;;49.40;17.08;;;;;;;;;;5021570;28;20425;-51
2023/03/22 05:42:46;;;;;;;72.72;19.27;;;;;;;;;;5021119;28;20025;-49
2023/03/22 05:45:12;;;;;;;55.95;19.23;;;;;;;;;;5020219;28;20112;-49
2023/03/22 05:47:38;;;;;;;67.45;20.55;;;;;;;;;;5021177;28;20092;-50
2023/03/22 05:50:07;;;;;;;69.28;23.58;;;;;;;;;;5021391;28;20028;-51
2023/03/22 05:52:32;;;;;;;;;;;;;;;;;;5021843;28;20148;-49
2023/03/22 05:54:58;;;;;;;47.00;17.77;;;;;;;;;;5021138;28;20437;-50
2023/03/22 05:57:23;;;;;;;43.05;19.00;;;;;;;;;;5021137;28;20255;-49
2023/03/22 05:59:48;;;;;;;37.60;17.60;;;;;;;;;;5021003;28;20108;-51
2023/03/22 06:02:14;;;;;;;52.63;19.60;;;;;;;;;;5021329;28;20057;-49
2023/03/22 06:04:40;;;;;;;41.80;18.55;;;;;;;;;;5021050;28;20098;-52
2023/03/22 06:07:06;;;;;;;35.10;15.77;;;;;;;;;;5021167;28;20034;-50
2023/03/22 06:09:31;;;;;;;33.63;16.63;;;;;;;;;;5020619;28;20092;-53
2023/03/22 06:11:57;;;;;;;35.53;16.00;;;;;;;;;;5020886;28;20025;-48
2023/03/22 06:14:22;;;;;;;29.83;15.32;;;;;;;;;;5021230;28;20032;-53
2023/03/22 06:16:47;;;;;;;30.48;13.82;;;;;;;;;;5021088;28;20411;-52
2023/03/22 06:19:13;;;;;;;27.67;12.85;;;;;;;;;;5021256;28;20148;-53
2023/03/22 06:21:38;;;;;;;30.38;13.70;;;;;;;;;;5020904;28;20076;-51
2023/03/22 06:24:03;;;;;;;34.38;13.10;;;;;;;;;;5021130;28;20071;-50
2023/03/22 06:26:29;;;;;;;22.70;12.40;;;;;;;;;;5020718;28;20108;-50
2023/03/22 06:28:54;;;;;;;21.73;12.35;;;;;;;;;;5018126;28;20045;-51
2023/03/22 06:31:19;;;;;;;23.98;13.43;;;;;;;;;;5021009;28;20111;-49
2023/03/22 06:33:45;;;;;;;27.88;12.45;;;;;;;;;;5025061;28;20032;-50
2023/03/22 06:36:10;;;;;;;25.08;12.40;;;;;;;;;;5023490;28;20034;-53
2023/03/22 06:38:35;;;;;;;21.73;12.35;;;;;;;;;;5024937;28;20463;-52
2023/03/22 06:41:01;;;;;;;21.90;11.98;;;;;;;;;;5024211;28;20021;-51
2023/03/22 06:43:26;;;;;;;38.83;14.27;;;;;;;;;;5027224;28;20032;-53
2023/03/22 06:45:51;;;;;;;19.83;10.70;;;;;;;;;;5028714;28;20021;-51
2023/03/22 06:48:17;;;;;;;27.13;12.80;;;;;;;;;;5028568;28;20471;-53
2023/03/22 06:50:43;;;;;;;24.30;11.77;;;;;;;;;;5028465;28;20021;-55
2023/03/22 06:53:08;;;;;;;22.52;11.93;;;;;;;;;;5030941;28;20029;-56
2023/03/22 06:55:33;;;;;;;25.65;11.95;;;;;;;;;;5028728;28;20439;-55
2023/03/22 06:58:02;;;;;;;23.55;11.50;;;;;;;;;;5023966;28;20025;-51
2023/03/22 07:00:28;;;;;;;19.88;11.77;;;;;;;;;;5018750;28;20084;-51
2023/03/22 07:02:53;;;;;;;25.02;12.20;;;;;;;;;;5023508;28;20034;-53
2023/03/22 07:05:19;;;;;;;19.55;11.48;;;;;;;;;;5027883;28;20474;-56
2023/03/22 07:07:45;;;;;;;22.33;11.40;;;;;;;;;;5043542;28;20477;-56
2023/03/22 07:10:10;;;;;;;21.95;11.55;;;;;;;;;;5029950;28;20032;-52
2023/03/22 07:12:35;;;;;;;25.67;13.10;;;;;;;;;;5016464;28;20512;-52
2023/03/22 07:15:01;;;;;;;19.88;11.75;;;;;;;;;;5031188;28;20044;-51
2023/03/22 07:17:26;;;;;;;16.45;10.50;;;;;;;;;;5029027;28;20037;-57
2023/03/22 07:19:52;;;;;;;20.55;9.80;;;;;;;;;;5029040;28;20021;-54
2023/03/22 07:22:20;;;;;;;21.70;10.93;;;;;;;;;;5028962;28;20104;-57
2023/03/22 07:24:46;;;;;;;16.85;10.23;;;;;;;;;;5028475;28;20030;-58
2023/03/22 07:27:11;;;;;;;29.58;11.43;;;;;;;;;;5028668;28;20052;-57
2023/03/22 07:29:36;;;;;;;17.40;10.13;;;;;;;;;;5028439;28;20029;-55
2023/03/22 07:32:02;;;;;;;16.38;9.85;;;;;;;;;;5028055;28;20054;-54
2023/03/22 07:34:27;;;;;;;15.18;9.35;;;;;;;;;;5029022;28;20047;-57
2023/03/22 07:36:55;;;;;;;17.88;9.73;;;;;;;;;;5028494;28;20557;-59
2023/03/22 07:39:23;;;;;;;17.85;10.65;;;;;;;;;;5028222;28;20040;-63
2023/03/22 07:41:49;;;;;;;15.88;9.60;;;;;;;;;;5027920;28;20040;-61
2023/03/22 07:44:14;;;;;;;15.30;7.97;;;;;;;;;;5027478;28;20029;-60
2023/03/22 07:46:39;;;;;;;19.67;8.38;;;;;;;;;;5028213;28;20068;-60
2023/03/22 07:49:05;;;;;;;15.50;9.30;;;;;;;;;;5028572;28;20108;-61
2023/03/22 07:51:30;;;;;;;15.32;8.50;;;;;;;;;;5027339;28;20029;-62
2023/03/22 07:53:55;;;;;;;13.57;7.85;;;;;;;;;;5028127;28;20033;-59
2023/03/22 07:56:21;;;;;;;13.60;8.68;;;;;;;;;;5028393;28;20030;-59
2023/03/22 07:58:46;;;;;;;12.07;8.20;;;;;;;;;;5028081;28;20798;-59
2023/03/22 08:01:11;;;;;;;17.60;9.20;;;;;;;;;;5028305;28;20455;-59
2023/03/22 08:03:37;;;;;;;12.05;7.82;;;;;;;;;;5027834;28;20116;-61
2023/03/22 08:06:06;;;;;;;14.27;8.20;;;;;;;;;;5027416;28;20532;-61
2023/03/22 08:08:32;;;;;;;17.60;10.60;;;;;;;;;;5026649;28;20113;-61
2023/03/22 08:10:57;;;;;;;10.90;8.13;;;;;;;;;;5026941;28;20132;-60
2023/03/22 08:13:22;;;;;;;14.13;9.27;;;;;;;;;;5025371;28;20067;-58
2023/03/22 08:15:48;;;;;;;18.52;8.18;;;;;;;;;;5040787;28;20041;-59
2023/03/22 08:18:13;;;;;;;11.00;7.47;;;;;;;;;;5027031;28;20037;-58
2023/03/22 08:20:39;;;;;;;11.23;7.32;;;;;;;;;;5027619;28;20643;-61
2023/03/22 08:23:06;;;;;;;17.75;9.77;;;;;;;;;;5031321;28;20017;-59
2023/03/22 08:25:32;;;;;;;14.27;8.73;;;;;;;;;;5026238;28;20029;-57
2023/03/22 08:27:57;;;;;;;13.30;8.35;;;;;;;;;;5027536;28;20128;-56
2023/03/22 08:30:23;;;;;;;11.82;7.55;;;;;;;;;;5027058;28;20577;-61
2023/03/22 08:32:49;;;;;;;13.82;9.13;;;;;;;;;;5027709;28;20454;-62
2023/03/22 08:35:14;;;;;;;11.73;8.23;;;;;;;;;;5027074;28;20026;-63
2023/03/22 08:37:40;;;;;;;17.85;8.93;;;;;;;;;;5027660;28;20482;-61
2023/03/22 08:40:08;;;;;;;13.60;8.35;;;;;;;;;;5027535;28;20434;-60
2023/03/22 08:42:33;;;;;;;19.55;8.95;;;;;;;;;;5027910;28;20056;-60
2023/03/22 08:44:58;;;;;;;14.05;8.50;;;;;;;;;;5027371;28;20053;-61
2023/03/22 08:47:24;;;;;;;13.90;7.40;;;;;;;;;;5027091;28;20090;-61
2023/03/22 08:49:49;;;;;;;11.90;7.55;;;;;;;;;;5027413;28;21021;-59
2023/03/22 08:52:14;;;;;;;11.68;7.65;;;;;;;;;;5026536;28;20108;-61
2023/03/22 08:54:40;;;;;;;13.53;9.77;;;;;;;;;;5025738;28;20099;-57
2023/03/22 08:57:08;;;;;;;14.65;8.27;;;;;;;;;;5026445;28;20266;-56
2023/03/22 08:59:33;;;;;;;16.60;9.93;;;;;;;;;;5025503;28;20120;-61
2023/03/22 09:01:58;;;;;;;19.23;8.10;;;;;;;;;;5026359;28;20100;-62
2023/03/22 09:04:25;;;;;;;13.57;8.75;;;;;;;;;;5026969;28;20269;-62
2023/03/22 09:06:50;;;;;;;13.13;8.50;;;;;;;;;;5027057;28;20024;-62
2023/03/22 09:09:15;;;;;;;17.90;8.53;;;;;;;;;;5026733;28;20115;-59
2023/03/22 09:11:41;;;;;;;13.93;9.50;;;;;;;;;;5025811;28;20277;-60
2023/03/22 09:14:07;;;;;;;14.60;9.40;;;;;;;;;;5024678;28;20316;-61
2023/03/22 09:16:32;;;;;;;16.55;10.20;;;;;;;;;;5025539;28;20049;-61
2023/03/22 09:18:57;;;;;;;15.63;9.82;;;;;;;;;;5025236;28;20024;-60
2023/03/22 09:21:23;;;;;;;19.10;10.60;;;;;;;;;;5025169;28;20032;-58
2023/03/22 09:23:49;;;;;;;12.38;8.57;;;;;;;;;;5025204;28;20018;-61
2023/03/22 09:26:14;;;;;;;15.30;9.50;;;;;;;;;;5025604;28;20029;-56
2023/03/22 09:28:40;;;;;;;14.73;9.40;;;;;;;;;;5025244;28;20378;-58
2023/03/22 09:31:06;;;;;;;12.05;7.32;;;;;;;;;;5025144;28;20072;-58
2023/03/22 09:33:32;;;;;;;17.00;9.77;;;;;;;;;;5022960;28;20080;-58
2023/03/22 09:35:58;;;;;;;13.30;8.07;;;;;;;;;;5025818;28;20029;-59
2023/03/22 09:38:24;;;;;;;16.67;9.75;;;;;;;;;;5025767;28;20075;-62
2023/03/22 09:40:59;;;;;;;15.00;8.68;;;;;;;;;;5025097;28;20033;-56
2023/03/22 09:43:26;;;;;;;12.48;7.80;;;;;;;;;;5025841;28;20116;-58
2023/03/22 09:45:51;;;;;;;14.30;8.65;;;;;;;;;;5025607;28;20094;-61
2023/03/22 09:48:19;;;;;;;11.88;8.18;;;;;;;;;;5039569;28;20502;-59
2023/03/22 09:50:51;;;;;;;13.10;8.35;;;;;;;;;;5040115;28;20521;-59
2023/03/22 09:53:17;;;;;;;15.40;8.35;;;;;;;;;;5025802;28;20067;-57
2023/03/22 09:55:55;;;;;;;19.73;10.50;;;;;;;;;;5025110;28;20021;-61
2023/03/22 09:58:40;;;;;;;13.73;9.40;;;;;;;;;;5025699;28;20033;-61
2023/03/22 10:01:05;;;;;;;25.38;8.32;;;;;;;;;;5025588;28;20024;-58
2023/03/22 10:03:39;;;;;;;12.23;8.07;;;;;;;;;;5025683;28;20116;-60
2023/03/22 10:06:11;;;;;;;13.02;8.63;;;;;;;;;;5024900;28;20044;-57
2023/03/22 10:08:40;;;;;;;11.68;7.20;;;;;;;;;;5022852;28;20632;-53
2023/03/22 10:11:12;;;;;;;10.63;7.43;;;;;;;;;;5025900;28;20036;-55
2023/03/22 10:13:44;;;;;;;15.70;7.47;;;;;;;;;;5016280;28;20093;-58
2023/03/22 10:16:12;;;;;;;11.65;8.05;;;;;;;;;;5025473;28;20030;-60
2023/03/22 10:18:39;;;;;;;10.57;7.47;;;;;;;;;;5027427;28;20371;-57
2023/03/22 10:21:06;;;;;;;9.68;5.97;;;;;;;;;;5024832;28;20063;-56
2023/03/22 10:23:37;;;;;;;13.18;7.32;;;;;;;;;;5026571;28;20030;-54
2023/03/22 10:26:03;;;;;;;14.00;7.80;;;;;;;;;;5025645;28;20032;-56
2023/03/22 10:28:33;;;;;;;12.88;7.80;;;;;;;;;;5024825;28;20418;-57
2023/03/22 10:30:59;;;;;;;8.77;6.35;;;;;;;;;;5020908;28;20054;-58
2023/03/22 10:33:27;;;;;;;9.20;6.63;;;;;;;;;;5024764;28;20041;-56
2023/03/22 10:35:53;;;;;;;12.30;7.35;;;;;;;;;;5024831;28;20010;-58
2023/03/22 10:38:22;;;;;;;11.07;7.13;;;;;;;;;;5024823;28;20720;-57
2023/03/22 10:40:48;;;;;;;13.57;7.55;;;;;;;;;;5024785;28;20112;-60
2023/03/22 10:43:19;;;;;;;10.50;6.40;;;;;;;;;;5025130;28;20489;-57
2023/03/22 10:45:45;;;;;;;12.60;7.65;;;;;;;;;;5024410;28;20033;-58
2023/03/22 10:48:13;;;;;;;9.57;6.13;;;;;;;;;;5024794;28;20501;-56
2023/03/22 10:50:40;;;;;;;11.88;6.85;;;;;;;;;;5024691;28;20010;-55
2023/03/22 10:53:10;;;;;;;10.68;6.22;;;;;;;;;;5024660;28;20022;-59
2023/03/22 10:55:40;;;;;;;9.98;6.95;;;;;;;;;;5024487;28;20120;-59
2023/03/22 10:58:11;;;;;;;9.13;6.90;;;;;;;;;;5024572;28;20113;-56
2023/03/22 11:00:37;;;;;;;16.80;8.40;;;;;;;;;;5024435;28;20026;-58
2023/03/22 11:03:04;;;;;;;9.38;6.38;;;;;;;;;;5023071;28;21435;-58
2023/03/22 11:05:30;;;;;;;9.90;6.15;;;;;;;;;;5022525;28;20131;-58
2023/03/22 11:07:59;;;;;;;12.82;6.03;;;;;;;;;;5022697;28;20044;-58
2023/03/22 11:10:26;;;;;;;;;;;;;;;;;;5023010;28;20041;-58
2023/03/22 11:13:11;;;;;;;8.77;6.35;;;;;;;;;;5019417;28;19913;-57
2023/03/22 11:15:47;;;;;;;11.95;7.47;;;;;;;;;;5022297;28;20044;-58
2023/03/22 11:18:14;;;;;;;8.98;6.05;;;;;;;;;;5024330;28;20116;-58
2023/03/22 11:20:41;;;;;;;64.03;33.60;;;;;;;;;;5026748;28;20025;-58
2023/03/22 11:23:06;;;;;;;15.02;9.82;;;;;;;;;;5027977;28;20032;-55
2023/03/22 11:25:34;;;;;;;16.33;7.00;;;;;;;;;;5027947;28;20473;-58
2023/03/22 11:28:05;;;;;;;18.60;6.88;;;;;;;;;;5028094;28;20680;-57
2023/03/22 11:30:31;;;;;;;7.20;5.22;;;;;;;;;;5027550;28;20057;-59
2023/03/22 11:33:00;;;;;;;48.53;44.03;;;;;;;;;;5037302;28;20014;-58
2023/03/22 11:35:28;;;;;;;15.25;6.07;;;;;;;;;;5026932;28;20474;-61
2023/03/22 11:37:54;;;;;;;16.08;6.07;;;;;;;;;;5028200;28;20022;-63
2023/03/22 11:40:21;;;;;;;11.38;5.72;;;;;;;;;;5028140;28;20040;-63
2023/03/22 11:42:48;;;;;;;22.52;19.05;;;;;;;;;;5027530;28;20021;-57
2023/03/22 11:45:24;;;;;;;30.73;25.77;;;;;;;;;;5027730;28;20029;-55
2023/03/22 11:47:49;;;;;;;29.92;25.10;;;;;;;;;;5028281;28;20029;-59
2023/03/22 11:50:41;;;;;;;19.60;16.60;;;;;;;;;;5026759;28;20084;-58
2023/03/22 11:53:10;;;;;;;19.70;5.90;;;;;;;;;;5022891;28;20052;-58
2023/03/22 11:55:35;;;;;;;24.67;11.73;;;;;;;;;;5023685;28;20117;-55
2023/03/22 11:58:02;;;;;;;8.65;5.10;;;;;;;;;;5022890;28;20116;-59
2023/03/22 12:00:29;;;;;;;11.57;8.07;;;;;;;;;;5023179;28;20052;-60
2023/03/22 12:02:56;;;;;;;6.57;4.45;;;;;;;;;;5023159;28;20025;-58
2023/03/22 12:05:26;;;;;;;13.48;6.18;;;;;;;;;;4990388;28;20458;-58
2023/03/22 12:08:14;;;;;;;17.65;5.95;;;;;;;;;;5023538;28;20156;-58
2023/03/22 12:10:41;;;;;;;17.60;15.85;;;;;;;;;;4984399;28;20439;-59
2023/03/22 12:13:18;;;;;;;20.38;10.48;;;;;;;;;;4984824;28;20069;-58
2023/03/22 12:15:47;;;;;;;11.10;6.18;;;;;;;;;;4984574;28;20034;-58
2023/03/22 12:18:25;;;;;;;10.18;5.70;;;;;;;;;;4952722;28;20476;-59
2023/03/22 12:20:57;;;;;;;10.07;6.00;;;;;;;;;;4984753;28;20027;-60
2023/03/22 12:23:24;;;;;;;11.05;5.45;;;;;;;;;;4967745;28;20045;-60
2023/03/22 12:25:52;;;;;;;18.13;7.07;;;;;;;;;;4984791;28;20030;-59
2023/03/22 12:28:20;;;;;;;15.07;6.53;;;;;;;;;;4984740;28;20035;-60
2023/03/22 12:30:47;;;;;;;14.63;5.10;;;;;;;;;;4984007;28;20148;-60
2023/03/22 12:33:20;;;;;;;12.50;5.43;;;;;;;;;;4984349;28;20109;-58
2023/03/22 12:35:47;;;;;;;20.25;12.07;;;;;;;;;;4984154;28;20567;-59
2023/03/22 12:38:15;;;;;;;17.55;5.90;;;;;;;;;;4984642;28;20030;-59
2023/03/22 12:40:41;;;;;;;9.27;4.80;;;;;;;;;;4984666;28;20027;-59
2023/03/22 12:43:06;;;;;;;9.75;4.80;;;;;;;;;;4984144;28;20270;-59
2023/03/22 12:45:34;;;;;;;25.87;5.83;;;;;;;;;;4983839;28;20058;-61
2023/03/22 12:48:05;;;;;;;8.07;4.03;;;;;;;;;;5009146;28;20263;-59
2023/03/22 12:50:54;;;;;;;6.93;4.45;;;;;;;;;;5024402;28;20410;-61
2023/03/22 12:53:20;;;;;;;7.03;4.38;;;;;;;;;;4985577;28;20688;-60
2023/03/22 12:55:47;;;;;;;15.43;4.78;;;;;;;;;;5002691;28;20491;-62
2023/03/22 12:58:15;;;;;;;12.10;4.57;;;;;;;;;;5002489;28;20049;-68
2023/03/22 13:00:43;;;;;;;9.43;4.40;;;;;;;;;;5001693;28;20671;-64
2023/03/22 13:03:15;;;;;;;12.15;4.80;;;;;;;;;;5001298;28;20029;-64
2023/03/22 13:05:40;;;;;;;11.07;5.22;;;;;;;;;;5002614;28;20080;-62
2023/03/22 13:08:06;;;;;;;8.32;4.13;;;;;;;;;;5003769;28;20096;-63
2023/03/22 13:10:31;;;;;;;17.80;5.88;;;;;;;;;;5003305;28;20049;-58
2023/03/22 13:13:15;;;;;;;9.10;4.55;;;;;;;;;;5002817;28;20430;-59
2023/03/22 13:15:57;;;;;;;7.45;4.20;;;;;;;;;;5002992;28;20030;-63
2023/03/22 13:18:49;;;;;;;15.45;5.00;;;;;;;;;;5003368;28;20044;-64
2023/03/22 13:21:16;;;;;;;20.30;4.82;;;;;;;;;;5001785;28;20124;-63
2023/03/22 13:23:53;;;;;;;11.23;4.50;;;;;;;;;;5001867;28;20033;-63
2023/03/22 13:26:19;;;;;;;13.85;4.63;;;;;;;;;;5002624;28;20148;-63
2023/03/22 13:28:57;;;;;;;8.65;4.45;;;;;;;;;;5003123;28;20064;-63
2023/03/22 13:31:35;;;;;;;12.18;4.72;;;;;;;;;;4983364;28;20058;-64
2023/03/22 13:34:01;;;;;;;12.98;4.35;;;;;;;;;;4977591;28;20026;-63
2023/03/22 13:36:28;;;;;;;9.65;4.07;;;;;;;;;;4973460;28;20102;-63
2023/03/22 13:38:57;;;;;;;9.63;4.00;;;;;;;;;;4972850;28;20096;-62
2023/03/22 13:41:27;;;;;;;11.07;4.32;;;;;;;;;;4961439;28;20058;-63
2023/03/22 13:43:55;;;;;;;7.25;4.57;;;;;;;;;;4972110;28;20034;-62
2023/03/22 13:46:21;;;;;;;10.60;4.80;;;;;;;;;;4971541;28;20038;-59
2023/03/22 13:48:46;;;;;;;8.40;4.30;;;;;;;;;;4967879;28;20469;-65
2023/03/22 13:51:17;;;;;;;15.57;5.60;;;;;;;;;;4963961;28;21215;-66
2023/03/22 13:54:06;;;;;;;38.35;9.05;;;;;;;;;;5033007;28;20284;-56
2023/03/22 13:56:45;;;;;;;7.25;4.30;;;;;;;;;;5009699;28;20410;-59
2023/03/22 13:59:12;;;;;;;13.90;4.80;;;;;;;;;;5018112;28;20478;-53
2023/03/22 14:01:49;;;;;;;15.73;5.85;;;;;;;;;;5009776;28;20076;-55
2023/03/22 14:04:21;;;;;;;11.88;4.97;;;;;;;;;;5008421;28;20022;-50
2023/03/22 14:07:06;;;;;;;22.02;6.80;;;;;;;;;;5005739;28;20061;-58
2023/03/22 14:09:38;;;;;;;9.55;4.40;;;;;;;;;;4950774;28;20034;-49
2023/03/22 14:12:26;;;;;;;14.18;4.70;;;;;;;;;;4994227;28;20476;-61
2023/03/22 14:14:55;;;;;;;10.25;4.20;;;;;;;;;;4978411;28;20082;-61
2023/03/22 14:17:20;;;;;;;;;;;;;;;;;;4979482;28;20031;-62
2023/03/22 14:19:46;;;;;;;11.27;4.00;;;;;;;;;;4998818;28;20007;-62
2023/03/22 14:22:13;;;;;;;13.20;3.97;;;;;;;;;;5002525;28;20565;-59
2023/03/22 14:24:40;;;;;;;6.05;3.60;;;;;;;;;;5000847;28;20085;-59
2023/03/22 14:27:05;;;;;;;7.60;3.58;;;;;;;;;;4999899;28;20040;-60